createdAt,value
2022-08-03T00:02:18.230Z,100922.69
2022-08-03T00:04:45.668Z,100922.75
2022-08-03T00:07:12.906Z,100921.34
2022-08-03T00:09:40.136Z,100917.16
2022-08-03T00:12:09.913Z,100923.59
2022-08-03T00:14:37.313Z,100926.41
2022-08-03T00:17:04.599Z,100926.50
2022-08-03T00:19:31.934Z,100931.97
2022-08-03T00:21:59.231Z,100925.66
2022-08-03T00:24:26.614Z,100920.78
2022-08-03T00:26:53.845Z,100923.16
2022-08-03T00:29:21.091Z,100923.06
2022-08-03T00:31:52.790Z,100924.13
2022-08-03T00:34:36.452Z,100925.28
2022-08-03T00:37:14.292Z,100925.75
2022-08-03T00:39:45.959Z,100923.00
2022-08-03T00:42:13.891Z,100921.38
2022-08-03T00:44:44.508Z,100926.41
2022-08-03T00:47:12.308Z,100925.66
2022-08-03T00:49:41.139Z,100925.19
2022-08-03T00:52:09.512Z,100922.59
2022-08-03T00:54:40.271Z,100922.84
2022-08-03T00:57:07.754Z,100921.06
2022-08-03T00:59:35.237Z,100918.06
2022-08-03T01:02:02.732Z,100922.97
2022-08-03T01:04:30.005Z,100923.88
2022-08-03T01:07:20.043Z,100922.34
2022-08-03T01:09:47.305Z,100917.19
2022-08-03T01:12:22.598Z,100913.97
2022-08-03T01:14:58.673Z,100907.09
2022-08-03T01:17:31.597Z,100908.84
2022-08-03T01:20:11.087Z,100911.38
2022-08-03T01:22:44.106Z,100909.19
2022-08-03T01:25:14.193Z,100903.91
2022-08-03T01:27:53.561Z,100912.56
2022-08-03T01:30:21.184Z,100911.84
2022-08-03T01:32:59.107Z,100903.69
2022-08-03T01:35:38.681Z,100906.88
2022-08-03T01:38:13.706Z,100904.41
2022-08-03T01:40:45.714Z,100909.97
2022-08-03T01:43:15.254Z,100907.38
2022-08-03T01:46:03.320Z,100905.63
2022-08-03T01:48:31.837Z,100893.97
2022-08-03T01:50:59.814Z,100898.41
2022-08-03T01:53:27.719Z,100894.84
2022-08-03T01:55:55.828Z,100897.94
2022-08-03T01:58:25.845Z,100899.81
2022-08-03T02:00:53.729Z,100892.44
2022-08-03T02:03:21.612Z,100894.47
2022-08-03T02:05:57.201Z,100900.13
2022-08-03T02:08:34.364Z,100897.09
2022-08-03T02:11:02.449Z,100895.88
2022-08-03T02:13:30.852Z,100894.06
2022-08-03T02:15:58.348Z,100895.22
2022-08-03T02:18:26.024Z,100886.03
2022-08-03T02:20:53.935Z,100883.06
2022-08-03T02:23:21.505Z,100887.13
2022-08-03T02:25:52.792Z,100885.59
2022-08-03T02:28:21.246Z,100883.88
2022-08-03T02:30:53.816Z,100883.66
2022-08-03T02:33:30.299Z,100884.22
2022-08-03T02:35:58.324Z,100881.28
2022-08-03T02:38:28.151Z,100886.34
2022-08-03T02:40:57.225Z,100880.59
2022-08-03T02:43:25.474Z,100879.31
2022-08-03T02:45:53.949Z,100876.75
2022-08-03T02:48:23.583Z,100876.91
2022-08-03T02:50:57.091Z,100882.06
2022-08-03T02:53:24.708Z,100876.41
2022-08-03T02:55:55.293Z,100876.16
2022-08-03T02:58:24.426Z,100878.94
2022-08-03T03:00:55.675Z,100877.50
2022-08-03T03:03:23.212Z,100879.84
2022-08-03T03:05:57.515Z,100884.75
2022-08-03T03:08:28.911Z,100881.19
2022-08-03T03:11:00.525Z,100885.59
2022-08-03T03:13:28.971Z,100882.16
2022-08-03T03:15:57.846Z,100881.91
2022-08-03T03:18:28.711Z,100883.69
2022-08-03T03:20:56.485Z,100890.31
2022-08-03T03:23:25.083Z,100874.78
2022-08-03T03:25:53.354Z,100873.09
2022-08-03T03:28:20.889Z,100872.97
2022-08-03T03:30:52.553Z,100877.19
2022-08-03T03:33:21.751Z,100883.19
2022-08-03T03:35:49.310Z,100885.69
2022-08-03T03:38:16.563Z,100892.19
2022-08-03T03:40:45.290Z,100886.47
2022-08-03T03:43:13.062Z,100891.00
2022-08-03T03:45:43.346Z,100887.66
2022-08-03T03:48:11.001Z,100891.72
2022-08-03T03:50:41.048Z,100887.38
2022-08-03T03:53:12.166Z,100881.16
2022-08-03T03:55:59.111Z,100883.47
2022-08-03T03:58:27.555Z,100880.00
2022-08-03T04:00:57.177Z,100877.72
2022-08-03T04:03:24.425Z,100887.91
2022-08-03T04:06:09.961Z,100884.22
2022-08-03T04:08:55.577Z,100889.72
2022-08-03T04:11:30.351Z,100890.31
2022-08-03T04:14:06.286Z,100890.13
2022-08-03T04:16:41.875Z,100892.78
2022-08-03T04:19:14.013Z,100890.38
2022-08-03T04:21:44.279Z,100888.66
2022-08-03T04:24:13.553Z,100890.84
2022-08-03T04:26:41.918Z,100891.47
2022-08-03T04:29:11.023Z,100897.25
2022-08-03T04:31:39.969Z,100900.91
2022-08-03T04:34:07.796Z,100898.59
2022-08-03T04:36:38.559Z,100897.78
2022-08-03T04:39:10.904Z,100901.41
2022-08-03T04:42:04.269Z,100899.66
2022-08-03T04:44:32.632Z,100902.66
2022-08-03T04:47:00.481Z,100900.50
2022-08-03T04:49:29.263Z,100910.56
2022-08-03T04:51:56.736Z,100913.38
2022-08-03T04:54:24.053Z,100924.56
2022-08-03T04:56:51.400Z,100913.25
2022-08-03T04:59:21.549Z,100919.63
2022-08-03T05:01:48.861Z,100922.28
2022-08-03T05:04:16.433Z,100928.69
2022-08-03T05:06:47.864Z,100919.22
2022-08-03T05:09:16.147Z,100913.13
2022-08-03T05:12:06.397Z,100926.28
2022-08-03T05:14:37.779Z,100932.34
2022-08-03T05:17:08.931Z,100924.09
2022-08-03T05:19:36.249Z,100923.84
2022-08-03T05:22:03.656Z,100931.03
2022-08-03T05:24:32.358Z,100927.13
2022-08-03T05:26:59.612Z,100931.13
2022-08-03T05:29:26.907Z,100931.44
2022-08-03T05:31:54.211Z,100925.53
2022-08-03T05:34:21.455Z,100934.47
2022-08-03T05:36:48.643Z,100929.50
2022-08-03T05:39:16.156Z,100930.22
2022-08-03T05:41:43.469Z,100925.53
2022-08-03T05:44:10.821Z,100924.91
2022-08-03T05:46:38.136Z,100926.63
2022-08-03T05:49:05.510Z,100927.81
2022-08-03T05:51:32.866Z,100925.16
2022-08-03T05:54:00.306Z,100929.94
2022-08-03T05:56:27.608Z,100922.09
2022-08-03T05:58:54.887Z,100925.91
2022-08-03T06:01:22.514Z,100930.50
2022-08-03T06:03:50.203Z,100933.53
2022-08-03T06:06:17.730Z,100936.41
2022-08-03T06:08:45.724Z,100940.97
2022-08-03T06:11:13.243Z,100939.50
2022-08-03T06:13:41.941Z,100944.13
2022-08-03T06:16:12.655Z,100951.63
2022-08-03T06:18:40.565Z,100954.63
2022-08-03T06:21:14.276Z,100953.44
2022-08-03T06:23:54.643Z,100965.28
2022-08-03T06:26:27.860Z,100967.84
2022-08-03T06:28:55.635Z,100973.56
2022-08-03T06:31:32.393Z,100983.78
2022-08-03T06:34:32.237Z,100985.94
2022-08-03T06:36:48.644Z,100985.94
2022-08-03T06:39:15.914Z,100989.22
2022-08-03T06:41:44.771Z,100997.94
2022-08-03T09:17:03.117Z,101024.78
2022-08-03T09:19:31.628Z,101023.19
2022-08-03T09:22:09.722Z,101018.22
2022-08-03T09:25:14.730Z,101018.66
2022-08-03T09:27:44.997Z,101016.25
2022-08-03T09:30:33.300Z,101018.44
2022-08-03T09:33:04.952Z,101016.75
2022-08-03T09:35:53.118Z,101015.50
2022-08-03T09:38:27.123Z,101021.47
2022-08-03T09:40:59.481Z,101017.69
2022-08-03T09:43:28.643Z,101013.63
2022-08-03T09:46:05.677Z,101019.84
2022-08-03T09:48:36.976Z,101013.03
2022-08-03T09:51:12.779Z,101009.66
2022-08-03T09:53:59.166Z,101005.78
2022-08-03T09:56:39.498Z,100999.09
2022-08-03T09:59:07.055Z,101001.50
2022-08-03T10:01:35.417Z,100993.53
2022-08-03T10:04:05.194Z,100994.16
2022-08-03T10:06:33.045Z,100991.69
2022-08-03T10:09:10.452Z,100990.22
2022-08-03T10:11:41.738Z,100986.53
2022-08-03T10:14:19.309Z,100986.34
2022-08-03T10:16:47.678Z,100984.38
2022-08-03T10:19:19.442Z,100980.09
2022-08-03T10:21:49.596Z,100971.91
2022-08-03T10:24:17.533Z,100974.97
2022-08-03T10:26:49.557Z,100972.47
2022-08-03T10:29:21.639Z,100971.31
2022-08-03T10:31:54.733Z,100974.44
2022-08-03T10:34:26.822Z,100967.88
2022-08-03T10:36:57.149Z,100965.41
2022-08-03T10:39:27.731Z,100960.63
2022-08-03T10:41:57.644Z,100958.78
2022-08-03T10:44:26.259Z,100952.84
2022-08-03T10:46:54.242Z,100956.59
2022-08-03T10:49:33.777Z,100944.41
2022-08-03T10:52:12.797Z,100946.56
2022-08-03T10:55:00.105Z,100944.09
2022-08-03T10:57:48.752Z,100940.88
2022-08-03T11:00:19.402Z,100944.59
2022-08-03T11:03:06.420Z,100948.19
2022-08-03T11:05:37.819Z,100948.50
2022-08-03T11:08:21.426Z,100943.59
2022-08-03T11:10:52.225Z,100932.34
2022-08-03T11:13:20.970Z,100931.66
2022-08-03T11:15:49.784Z,100928.97
2022-08-03T11:18:17.620Z,100928.28
2022-08-03T11:20:49.401Z,100933.47
2022-08-03T11:23:17.984Z,100925.72
2022-08-03T11:26:03.849Z,100921.56
2022-08-03T11:28:33.723Z,100925.84
2022-08-03T11:31:47.238Z,100927.69
2022-08-03T11:34:12.256Z,100923.97
2022-08-03T11:36:58.575Z,100919.09
2022-08-03T11:39:42.717Z,100926.84
2022-08-03T11:42:24.926Z,100917.56
2022-08-03T11:44:53.802Z,100920.41
2022-08-03T11:47:24.492Z,100910.94
2022-08-03T11:49:59.214Z,100905.84
2022-08-03T11:52:28.734Z,100908.97
2022-08-03T11:54:57.875Z,100909.66
2022-08-03T11:59:01.264Z,100900.50
2022-08-03T12:00:20.944Z,100904.78
2022-08-03T12:03:22.619Z,100902.25
2022-08-03T12:05:53.613Z,100894.53
2022-08-03T12:08:34.260Z,100894.81
2022-08-03T12:11:08.163Z,100881.19
2022-08-03T12:14:44.124Z,100888.00
2022-08-03T12:16:32.903Z,100890.53
2022-08-03T12:19:04.214Z,100888.00
2022-08-03T12:21:45.734Z,100887.41
2022-08-03T12:24:29.658Z,100881.78
2022-08-03T12:27:04.503Z,100874.44
2022-08-03T12:29:33.262Z,100874.19
2022-08-03T12:32:00.846Z,100880.25
2022-08-03T12:34:47.245Z,100873.63
2022-08-03T12:37:23.011Z,100876.78
2022-08-03T12:40:02.528Z,100884.66
2022-08-03T12:42:39.482Z,100881.28
2022-08-03T12:45:32.326Z,100878.63
2022-08-03T12:48:18.618Z,100879.09
2022-08-03T12:51:15.411Z,100881.06
2022-08-03T12:54:05.734Z,100880.44
2022-08-03T12:57:35.782Z,100872.25
2022-08-03T13:00:28.859Z,100877.63
2022-08-03T13:03:39.287Z,100872.59
2022-08-03T13:06:34.157Z,100875.19
2022-08-03T13:09:09.916Z,100866.25
2022-08-03T13:11:55.611Z,100872.25
2022-08-03T13:14:28.293Z,100861.34
2022-08-03T13:17:54.382Z,100846.53
2022-08-03T13:21:12.055Z,100860.66
2022-08-03T13:28:03.127Z,100859.09
2022-08-03T13:30:52.113Z,100848.06
2022-08-03T13:33:23.526Z,100852.75
2022-08-03T13:36:05.815Z,100846.97
2022-08-03T13:38:38.366Z,100839.44
2022-08-03T13:41:11.024Z,100841.66
2022-08-03T13:43:44.363Z,100839.78
2022-08-03T13:46:19.658Z,100838.44
2022-08-03T13:48:55.020Z,100829.41
2022-08-03T13:51:31.897Z,100834.13
2022-08-03T13:54:19.160Z,100836.13
2022-08-03T13:58:05.130Z,100826.81
2022-08-03T13:59:47.857Z,100827.19
2022-08-03T14:02:36.158Z,100823.13
2022-08-03T14:05:18.248Z,100813.59
2022-08-03T14:07:52.031Z,100817.94
2022-08-03T14:10:24.880Z,100818.59
2022-08-03T14:13:06.403Z,100809.28
2022-08-03T14:15:37.591Z,100804.91
2022-08-03T14:18:27.710Z,100805.97
2022-08-03T14:21:05.880Z,100804.66
2022-08-03T14:24:14.695Z,100801.09
2022-08-03T14:26:50.024Z,100792.06
2022-08-03T14:29:56.332Z,100793.53
2022-08-03T14:32:55.921Z,100794.41
2022-08-03T14:35:29.089Z,100793.56
2022-08-03T14:38:13.757Z,100789.97
2022-08-03T14:41:20.186Z,100788.00
2022-08-03T14:43:38.202Z,100783.34
2022-08-03T14:46:07.138Z,100782.53
2022-08-03T14:50:24.994Z,100776.03
2022-08-03T14:51:33.425Z,100781.00
2022-08-03T14:59:55.826Z,100769.78
2022-08-03T15:07:04.312Z,100764.00
2022-08-03T15:13:06.846Z,100752.56
2022-08-03T15:20:00.424Z,100746.47
2022-08-03T15:22:34.752Z,100745.25
2022-08-03T15:25:04.085Z,100743.00
2022-08-03T15:28:04.209Z,100741.84
2022-08-03T15:30:41.278Z,100734.78
2022-08-03T15:33:27.689Z,100734.09
2022-08-03T15:36:10.410Z,100739.34
2022-08-03T15:38:43.945Z,100731.19
2022-08-03T15:41:19.492Z,100732.59
2022-08-03T15:43:53.102Z,100721.34
2022-08-03T15:46:29.899Z,100726.59
2022-08-03T15:49:05.497Z,100720.91
2022-08-03T15:52:05.054Z,100718.00
2022-08-03T15:54:39.274Z,100720.53
2022-08-03T15:57:13.747Z,100727.72
2022-08-03T15:59:44.355Z,100720.84
2022-08-03T16:05:07.825Z,100713.50
2022-08-03T17:10:27.565Z,100692.44
2022-08-03T17:13:00.405Z,100679.25
2022-08-03T17:15:38.342Z,100684.41
2022-08-03T17:18:21.918Z,100683.41
2022-08-03T17:20:50.981Z,100687.84
2022-08-03T17:23:34.479Z,100684.41
2022-08-03T17:26:08.932Z,100684.13
2022-08-03T17:28:50.021Z,100692.56
2022-08-03T17:31:31.740Z,100694.72
2022-08-03T17:34:01.201Z,100691.16
2022-08-03T17:39:30.899Z,100695.44
2022-08-03T17:42:05.357Z,100699.53
2022-08-03T17:44:53.185Z,100691.50
2022-08-03T17:47:23.616Z,100700.78
2022-08-03T17:49:57.041Z,100690.94
2022-08-03T17:52:48.465Z,100698.75
2022-08-03T17:55:56.991Z,100707.78
2022-08-03T17:58:11.934Z,100703.41
2022-08-03T18:01:02.031Z,100706.69
2022-08-03T18:03:58.753Z,100708.63
2022-08-03T18:06:30.615Z,100708.06
2022-08-03T18:09:04.693Z,100707.72
2022-08-03T18:11:35.896Z,100703.97
2022-08-03T18:14:16.449Z,100708.88
2022-08-03T20:16:35.701Z,100767.78
2022-08-03T20:34:58.847Z,100780.31
2022-08-03T20:45:06.373Z,100772.03
2022-08-03T20:57:12.517Z,100780.13
2022-08-03T21:01:17.171Z,100781.72
2022-08-03T21:24:30.115Z,100795.97
2022-08-03T21:28:27.613Z,100796.22
2022-08-03T21:35:14.267Z,100808.38
2022-08-03T21:42:25.880Z,100810.09
2022-08-03T21:45:18.080Z,100811.25
2022-08-03T22:01:36.043Z,100820.19
2022-08-03T22:04:42.700Z,100818.88
2022-08-03T22:07:29.294Z,100821.75
2022-08-03T22:10:05.378Z,100832.16
2022-08-03T22:12:51.088Z,100832.63
2022-08-03T22:15:55.307Z,100837.63
2022-08-03T22:18:50.921Z,100836.09
2022-08-03T22:24:33.793Z,100834.44
2022-08-03T22:28:06.582Z,100834.84
2022-08-03T22:31:36.903Z,100838.19
2022-08-03T22:34:04.035Z,100848.69
2022-08-03T22:36:55.160Z,100844.84
2022-08-03T22:39:44.401Z,100842.53
2022-08-03T22:43:11.240Z,100846.34
2022-08-03T22:46:09.000Z,100855.78
2022-08-03T22:48:42.041Z,100847.25
2022-08-03T22:51:23.606Z,100852.13
2022-08-03T22:58:31.031Z,100856.09
2022-08-03T23:01:19.130Z,100860.28
2022-08-03T23:04:20.388Z,100852.81
2022-08-03T23:07:03.707Z,100862.63
2022-08-03T23:10:00.920Z,100860.13
2022-08-03T23:12:47.169Z,100866.16
2022-08-03T23:18:36.770Z,100863.28
2022-08-03T23:22:29.342Z,100866.56
2022-08-03T23:25:13.690Z,100865.13
2022-08-03T23:28:41.967Z,100859.16
2022-08-03T23:31:52.475Z,100858.97
2022-08-03T23:38:04.142Z,100862.91
2022-08-03T23:40:53.040Z,100863.19
2022-08-03T23:43:45.387Z,100858.84
2022-08-03T23:46:26.498Z,100860.59
2022-08-03T23:49:59.798Z,100861.53
2022-08-03T23:52:45.752Z,100857.31
2022-08-03T23:55:38.828Z,100861.25
2022-08-03T23:58:59.732Z,100858.97
